Delafield, Wisconsin
Current Conditions -  °F | °C
As of 4:55 AM on Saturday 25 Oct 2014 (Local Time) from KUES Reporting Station
Haze Haze  
Wind Chill: 54°   Ceiling: 800
Heat Index: 54°   Visibility: 5mi
Dew Point: 52°   Wind: 9mph
Humidity: 94%   Direction: 260°W
Pressure: 29.89"   Gusts: NA
Location:  43.06°N, 88.4°W
Report Text: KUES 250955Z AUTO 26008KT 5SM BR OVC008 12/11 A2989 RMK AO2
Loading
Personal Weather Stations






























Interactive Weather Map
Tropical Storm Tracking
New forecast layout! Learn more

10-Day Weather Forecast

Advertisements
Track Severe Weather on mobile